createdAt,value
2017-12-03T00:00:25.709Z,0
2017-12-03T00:01:06.317Z,0
2017-12-03T00:01:46.837Z,0
2017-12-03T00:02:27.411Z,0
2017-12-03T00:03:07.969Z,0
2017-12-03T00:03:48.531Z,0
2017-12-03T00:04:29.097Z,0
2017-12-03T00:05:09.662Z,0
2017-12-03T00:05:50.235Z,0
2017-12-03T00:06:30.791Z,0
2017-12-03T00:07:11.389Z,0
2017-12-03T00:07:51.944Z,0
2017-12-03T00:08:32.500Z,0
2017-12-03T00:09:13.075Z,0
2017-12-03T00:09:53.640Z,0
2017-12-03T00:10:34.208Z,0
2017-12-03T00:11:14.781Z,0
2017-12-03T00:11:55.384Z,0
2017-12-03T00:12:35.929Z,0
2017-12-03T00:13:16.499Z,0
2017-12-03T00:13:57.145Z,0
2017-12-03T00:14:37.721Z,0
2017-12-03T00:15:18.316Z,0
2017-12-03T00:15:58.899Z,0
2017-12-03T00:16:39.505Z,0
2017-12-03T00:17:20.080Z,0
2017-12-03T00:18:00.646Z,0
2017-12-03T00:18:41.211Z,0
2017-12-03T00:19:21.803Z,0
2017-12-03T00:20:02.369Z,0
2017-12-03T00:20:42.968Z,0
2017-12-03T00:21:23.566Z,0
2017-12-03T00:22:04.140Z,0
2017-12-03T00:22:44.724Z,0
2017-12-03T00:23:25.296Z,0
2017-12-03T00:24:05.862Z,0
2017-12-03T00:24:46.449Z,0
2017-12-03T00:25:27.022Z,0
2017-12-03T00:26:07.608Z,0
2017-12-03T00:26:48.196Z,0
2017-12-03T00:27:28.771Z,0
2017-12-03T00:28:09.339Z,0
2017-12-03T00:28:49.901Z,0
2017-12-03T00:29:30.475Z,0
2017-12-03T00:30:11.051Z,0
2017-12-03T00:30:51.641Z,0
2017-12-03T00:31:32.201Z,0
2017-12-03T00:32:12.754Z,0
2017-12-03T00:32:53.315Z,0
2017-12-03T00:33:33.884Z,0
2017-12-03T00:34:14.497Z,0
2017-12-03T00:34:55.071Z,0
2017-12-03T00:35:35.622Z,0
2017-12-03T00:36:16.180Z,0
2017-12-03T00:36:56.769Z,0
2017-12-03T00:37:37.344Z,0
2017-12-03T00:38:18.001Z,0
2017-12-03T00:38:58.529Z,0
2017-12-03T00:39:39.099Z,0
2017-12-03T00:40:19.651Z,0
2017-12-03T00:41:00.226Z,0
2017-12-03T00:41:40.802Z,0
2017-12-03T00:42:21.382Z,0
2017-12-03T00:43:01.962Z,0
2017-12-03T00:43:42.520Z,0
2017-12-03T00:44:23.103Z,0
2017-12-03T00:45:03.697Z,0
2017-12-03T00:45:44.255Z,0
2017-12-03T00:46:24.840Z,0
2017-12-03T00:47:05.392Z,0
2017-12-03T00:47:45.951Z,0
2017-12-03T00:48:26.528Z,0
2017-12-03T00:49:07.121Z,0
2017-12-03T00:49:47.727Z,0
2017-12-03T00:50:28.304Z,0
2017-12-03T00:51:08.862Z,0
2017-12-03T00:51:49.436Z,0
2017-12-03T00:52:29.998Z,0
2017-12-03T00:53:10.559Z,0
2017-12-03T00:53:51.134Z,0
2017-12-03T00:54:31.741Z,0
2017-12-03T00:55:12.314Z,0
2017-12-03T00:55:52.914Z,0
2017-12-03T00:56:33.485Z,0
2017-12-03T00:57:14.050Z,0
2017-12-03T00:57:54.645Z,0
2017-12-03T00:58:35.254Z,0
2017-12-03T00:59:15.831Z,0
2017-12-03T00:59:56.399Z,0
2017-12-03T01:00:37.036Z,0
2017-12-03T01:01:17.599Z,0
2017-12-03T01:01:58.388Z,0
2017-12-03T01:02:38.941Z,0
2017-12-03T01:03:19.498Z,0
2017-12-03T01:04:00.054Z,0
2017-12-03T01:04:40.623Z,0
2017-12-03T01:05:21.189Z,0
2017-12-03T01:06:01.750Z,0
2017-12-03T01:06:42.327Z,0
2017-12-03T01:07:22.898Z,0
2017-12-03T01:08:03.491Z,0
2017-12-03T01:08:44.073Z,0
2017-12-03T01:09:24.637Z,0
2017-12-03T01:10:05.214Z,0
2017-12-03T01:10:45.783Z,0
2017-12-03T01:11:26.349Z,0
2017-12-03T01:12:06.919Z,0
2017-12-03T01:12:47.494Z,0
2017-12-03T01:13:28.050Z,0
2017-12-03T01:14:08.613Z,0
2017-12-03T01:14:49.196Z,0
2017-12-03T01:15:29.796Z,0
2017-12-03T01:16:10.427Z,0
2017-12-03T01:16:50.991Z,0
2017-12-03T01:17:31.582Z,0
2017-12-03T01:18:12.162Z,0
2017-12-03T01:18:52.725Z,0
2017-12-03T01:19:33.282Z,0
2017-12-03T01:20:13.840Z,0
2017-12-03T01:20:54.423Z,0
2017-12-03T01:21:34.985Z,0
2017-12-03T01:22:15.544Z,0
2017-12-03T01:22:56.121Z,0
2017-12-03T01:23:36.695Z,0
2017-12-03T01:24:17.265Z,0
2017-12-03T01:24:57.833Z,0
2017-12-03T01:25:38.401Z,0
2017-12-03T01:26:18.965Z,0
2017-12-03T01:26:59.522Z,0
2017-12-03T01:27:40.096Z,0
2017-12-03T01:28:20.667Z,0
2017-12-03T01:29:01.240Z,0
2017-12-03T01:29:41.815Z,0
2017-12-03T01:30:22.389Z,0
2017-12-03T01:31:02.954Z,0
2017-12-03T01:31:43.525Z,0
2017-12-03T01:32:24.095Z,0
2017-12-03T01:33:04.662Z,0
2017-12-03T01:33:45.232Z,0
2017-12-03T01:34:25.808Z,0
2017-12-03T01:35:06.386Z,0
2017-12-03T01:35:46.959Z,0
2017-12-03T01:36:27.549Z,0
2017-12-03T01:37:08.106Z,0
2017-12-03T01:37:48.667Z,0
2017-12-03T01:38:29.236Z,0
2017-12-03T01:39:09.796Z,0
2017-12-03T01:39:50.363Z,0
2017-12-03T01:40:30.919Z,0
2017-12-03T01:41:11.470Z,0
2017-12-03T01:41:52.037Z,0
2017-12-03T01:42:32.606Z,0
2017-12-03T01:43:13.175Z,0
2017-12-03T01:43:53.751Z,0
2017-12-03T01:44:34.312Z,0
2017-12-03T01:45:14.875Z,0
2017-12-03T01:45:55.454Z,0
2017-12-03T01:46:36.027Z,0
2017-12-03T01:47:16.595Z,0
2017-12-03T01:47:57.157Z,0
2017-12-03T01:48:37.715Z,0
2017-12-03T01:49:18.269Z,0
2017-12-03T01:49:58.836Z,0
2017-12-03T01:50:39.423Z,0
2017-12-03T01:51:20.004Z,0
2017-12-03T01:52:00.568Z,0
2017-12-03T01:52:41.135Z,0
2017-12-03T01:53:21.688Z,0
2017-12-03T01:54:02.283Z,0
2017-12-03T01:54:42.836Z,0
2017-12-03T01:55:23.407Z,0
2017-12-03T01:56:03.982Z,0
2017-12-03T01:56:44.542Z,0
2017-12-03T01:57:25.114Z,0
2017-12-03T01:58:05.674Z,0
2017-12-03T01:58:46.229Z,0
2017-12-03T01:59:26.825Z,0
2017-12-03T02:00:07.385Z,0
2017-12-03T02:00:47.945Z,0
2017-12-03T02:01:28.502Z,0
2017-12-03T02:02:09.071Z,0
2017-12-03T02:02:49.648Z,0
2017-12-03T02:03:30.243Z,0
2017-12-03T02:04:10.807Z,0
2017-12-03T02:04:51.382Z,0
2017-12-03T02:05:31.959Z,0
2017-12-03T02:06:12.508Z,0
2017-12-03T02:06:53.103Z,0
2017-12-03T02:07:33.659Z,0
2017-12-03T02:08:14.267Z,0
2017-12-03T02:08:54.844Z,0
2017-12-03T02:09:35.403Z,0
2017-12-03T02:10:15.970Z,0
2017-12-03T02:10:56.541Z,0
2017-12-03T02:11:37.105Z,0
2017-12-03T02:12:17.669Z,0
2017-12-03T02:12:58.236Z,0
2017-12-03T02:13:38.805Z,0
2017-12-03T02:14:19.395Z,0
2017-12-03T02:14:59.967Z,0
2017-12-03T02:15:40.515Z,0
2017-12-03T02:16:21.075Z,0
2017-12-03T02:17:01.652Z,0
2017-12-03T02:17:42.234Z,0
2017-12-03T02:18:22.798Z,0
2017-12-03T02:19:03.407Z,0
2017-12-03T02:19:43.976Z,0
2017-12-03T02:20:24.532Z,0
2017-12-03T02:21:05.106Z,0
2017-12-03T02:21:45.677Z,0
2017-12-03T02:22:26.246Z,0
2017-12-03T02:23:06.812Z,0
2017-12-03T02:23:47.377Z,0
2017-12-03T02:24:27.954Z,0
2017-12-03T02:25:08.546Z,0
2017-12-03T02:25:49.127Z,0
2017-12-03T02:26:29.718Z,0
2017-12-03T02:27:10.282Z,0
2017-12-03T02:27:50.860Z,0
2017-12-03T02:28:31.422Z,0
2017-12-03T02:29:12.003Z,0
2017-12-03T02:29:52.573Z,0
2017-12-03T02:30:33.137Z,0
2017-12-03T02:31:13.778Z,0
2017-12-03T02:31:54.287Z,0
2017-12-03T02:32:34.861Z,0
2017-12-03T02:33:15.431Z,0
2017-12-03T02:33:56.049Z,0
2017-12-03T02:34:36.608Z,0
2017-12-03T02:35:17.192Z,0
2017-12-03T02:35:57.751Z,0
2017-12-03T02:36:38.339Z,0
2017-12-03T02:37:18.948Z,0
2017-12-03T02:37:59.526Z,0
2017-12-03T02:38:40.088Z,0
2017-12-03T02:39:20.652Z,0
2017-12-03T02:40:01.249Z,0
2017-12-03T02:40:41.807Z,0
2017-12-03T02:41:22.389Z,0
2017-12-03T02:42:02.962Z,0
2017-12-03T02:42:43.534Z,0
2017-12-03T02:43:24.103Z,0
2017-12-03T02:44:04.686Z,0
2017-12-03T02:44:45.269Z,0
2017-12-03T02:45:25.854Z,0
2017-12-03T02:46:06.431Z,0
2017-12-03T02:46:47.004Z,0
2017-12-03T02:47:27.574Z,0
2017-12-03T02:48:08.167Z,0
2017-12-03T02:48:48.733Z,0
2017-12-03T02:49:29.293Z,0
2017-12-03T02:50:09.880Z,0
2017-12-03T02:50:50.434Z,0
2017-12-03T02:51:31.011Z,0
2017-12-03T02:52:11.612Z,0
2017-12-03T02:52:52.195Z,0
2017-12-03T02:53:32.745Z,0
2017-12-03T02:54:13.329Z,0
2017-12-03T02:54:53.908Z,0
2017-12-03T02:55:34.475Z,0
2017-12-03T02:56:15.054Z,0
2017-12-03T02:56:55.619Z,0
2017-12-03T02:57:36.177Z,0
2017-12-03T02:58:16.749Z,0
2017-12-03T02:58:57.340Z,0
2017-12-03T02:59:37.905Z,0
2017-12-03T03:00:18.475Z,0
2017-12-03T03:00:59.030Z,0
2017-12-03T03:01:39.611Z,0
2017-12-03T03:02:20.190Z,0
2017-12-03T03:03:00.747Z,0
2017-12-03T03:03:41.309Z,0
2017-12-03T03:04:21.880Z,0
2017-12-03T03:05:02.467Z,0
2017-12-03T03:05:43.036Z,0
2017-12-03T03:06:23.593Z,0
2017-12-03T03:07:04.177Z,0
2017-12-03T03:07:44.746Z,0
2017-12-03T03:08:25.349Z,0
2017-12-03T03:09:05.955Z,0
2017-12-03T03:09:46.532Z,0
2017-12-03T03:10:27.103Z,0
2017-12-03T03:11:07.663Z,0
2017-12-03T03:11:48.252Z,0
2017-12-03T03:12:28.828Z,0
2017-12-03T03:13:09.398Z,0
2017-12-03T03:13:49.957Z,0
2017-12-03T03:14:30.521Z,0
2017-12-03T03:15:11.101Z,0
2017-12-03T03:15:51.667Z,0
2017-12-03T03:16:32.250Z,0
2017-12-03T03:17:12.809Z,0
2017-12-03T03:17:53.415Z,0
2017-12-03T03:18:34.015Z,0
2017-12-03T03:19:14.621Z,0
2017-12-03T03:19:55.218Z,0
2017-12-03T03:20:35.781Z,0
2017-12-03T03:21:16.352Z,0
2017-12-03T03:21:56.940Z,0
2017-12-03T03:22:37.497Z,0
2017-12-03T03:23:18.067Z,0
2017-12-03T03:23:58.680Z,0
2017-12-03T03:24:39.265Z,0
2017-12-03T03:25:19.836Z,0
2017-12-03T03:26:00.430Z,0
2017-12-03T03:26:41.038Z,0
2017-12-03T03:27:21.592Z,0
2017-12-03T03:28:02.169Z,0
2017-12-03T03:28:42.737Z,0
2017-12-03T03:29:23.324Z,0
2017-12-03T03:30:03.899Z,0
2017-12-03T03:30:44.513Z,0
2017-12-03T03:31:25.064Z,0
2017-12-03T03:32:05.632Z,0
2017-12-03T03:32:46.189Z,0
2017-12-03T03:33:26.776Z,0
2017-12-03T03:34:07.364Z,0
2017-12-03T03:34:47.953Z,0
2017-12-03T03:35:28.536Z,0
2017-12-03T03:36:09.137Z,0
2017-12-03T03:36:49.702Z,0
2017-12-03T03:37:30.271Z,0
2017-12-03T03:38:10.841Z,0
2017-12-03T03:38:51.398Z,0
2017-12-03T03:39:31.977Z,0
2017-12-03T03:40:12.558Z,0
2017-12-03T03:40:53.114Z,0
2017-12-03T03:41:33.679Z,0
2017-12-03T03:42:14.231Z,0
2017-12-03T03:42:54.793Z,0
2017-12-03T03:43:35.354Z,0
2017-12-03T03:44:15.919Z,0
2017-12-03T03:44:56.487Z,0
2017-12-03T03:45:37.043Z,0
2017-12-03T03:46:17.641Z,0
2017-12-03T03:46:58.192Z,0
2017-12-03T03:47:38.758Z,0
2017-12-03T03:48:19.310Z,0
2017-12-03T03:48:59.876Z,0
2017-12-03T03:49:40.469Z,0
2017-12-03T03:50:21.024Z,0
2017-12-03T03:51:01.636Z,0
2017-12-03T03:51:42.234Z,0
2017-12-03T03:52:22.832Z,0
2017-12-03T03:53:03.369Z,0
2017-12-03T03:53:43.935Z,0
2017-12-03T03:54:24.498Z,0
2017-12-03T03:55:05.057Z,0
2017-12-03T03:55:45.631Z,0
2017-12-03T03:56:26.225Z,0
2017-12-03T03:57:06.778Z,0
2017-12-03T03:57:47.343Z,0
2017-12-03T03:58:27.900Z,0
2017-12-03T03:59:08.521Z,0
2017-12-03T03:59:49.109Z,0
2017-12-03T04:00:29.672Z,0
2017-12-03T04:01:10.240Z,0
2017-12-03T04:01:50.793Z,0
2017-12-03T04:02:31.368Z,0
2017-12-03T04:03:11.936Z,0
2017-12-03T04:03:52.504Z,0
2017-12-03T04:04:33.068Z,0
2017-12-03T04:05:13.668Z,0
2017-12-03T04:05:54.255Z,0
2017-12-03T04:06:34.823Z,0
2017-12-03T04:07:15.414Z,0
2017-12-03T04:07:55.981Z,0
2017-12-03T04:08:36.580Z,0
2017-12-03T04:09:17.166Z,0
2017-12-03T04:09:57.729Z,0
2017-12-03T04:10:38.295Z,0
2017-12-03T04:11:18.852Z,0
2017-12-03T04:11:59.408Z,0
2017-12-03T04:12:39.984Z,0
2017-12-03T04:13:20.551Z,0
2017-12-03T04:14:01.116Z,0
2017-12-03T04:14:41.672Z,0
2017-12-03T04:15:22.231Z,0
2017-12-03T04:16:02.797Z,0
2017-12-03T04:16:43.382Z,0
2017-12-03T04:17:23.945Z,0
2017-12-03T04:18:04.504Z,0
2017-12-03T04:18:45.068Z,0
2017-12-03T04:19:25.645Z,0
2017-12-03T04:20:06.215Z,0
2017-12-03T04:20:46.796Z,0
2017-12-03T04:21:27.398Z,0
2017-12-03T04:22:07.962Z,0
2017-12-03T04:22:48.515Z,0
2017-12-03T04:23:29.107Z,0
2017-12-03T04:24:09.675Z,0
2017-12-03T04:24:50.247Z,0
2017-12-03T04:25:30.799Z,0
2017-12-03T04:26:11.373Z,0
2017-12-03T04:26:51.971Z,0
2017-12-03T04:27:32.560Z,0
2017-12-03T04:28:13.121Z,0
2017-12-03T04:28:53.702Z,0
2017-12-03T04:29:34.278Z,0
2017-12-03T04:30:14.836Z,0
2017-12-03T04:30:55.418Z,0
2017-12-03T04:31:35.999Z,0
2017-12-03T04:32:16.571Z,0
2017-12-03T04:32:57.137Z,0
2017-12-03T04:33:37.774Z,0
2017-12-03T04:34:18.338Z,0
2017-12-03T04:34:58.904Z,0
2017-12-03T04:35:39.474Z,0
2017-12-03T04:36:20.051Z,0
2017-12-03T04:37:00.635Z,0
2017-12-03T04:37:41.223Z,0
2017-12-03T04:38:21.802Z,0
2017-12-03T04:39:02.364Z,0
2017-12-03T04:39:42.932Z,0
2017-12-03T04:40:23.501Z,0
2017-12-03T04:41:04.085Z,0
2017-12-03T04:41:44.658Z,0
2017-12-03T04:42:25.212Z,0
2017-12-03T04:43:05.779Z,0
2017-12-03T04:43:46.337Z,0
2017-12-03T04:44:26.902Z,0
2017-12-03T04:45:07.501Z,0
2017-12-03T04:45:48.071Z,0
2017-12-03T04:46:28.636Z,0
2017-12-03T04:47:09.204Z,0
2017-12-03T04:47:49.785Z,0
2017-12-03T04:48:30.355Z,0
2017-12-03T04:49:11.213Z,0
2017-12-03T04:49:51.784Z,0
2017-12-03T04:50:32.380Z,0
2017-12-03T04:51:12.945Z,0
2017-12-03T04:51:53.514Z,0
2017-12-03T04:52:34.103Z,0
2017-12-03T04:53:14.695Z,0
2017-12-03T04:53:55.236Z,0
2017-12-03T04:54:35.819Z,0
2017-12-03T04:55:16.406Z,0
2017-12-03T04:55:56.969Z,0
2017-12-03T04:56:37.530Z,0
2017-12-03T04:57:18.098Z,0
2017-12-03T04:57:58.660Z,0
2017-12-03T04:58:39.224Z,0
2017-12-03T04:59:19.797Z,0
2017-12-03T05:00:00.358Z,0
2017-12-03T05:00:40.935Z,0
2017-12-03T05:01:21.510Z,0
2017-12-03T05:02:02.071Z,0
2017-12-03T05:02:42.657Z,0
2017-12-03T05:03:23.258Z,0
2017-12-03T05:04:03.848Z,0
2017-12-03T05:04:44.422Z,0
2017-12-03T05:05:24.995Z,0
2017-12-03T05:06:05.550Z,0
2017-12-03T05:06:46.112Z,0
2017-12-03T05:07:26.680Z,0
2017-12-03T05:08:07.247Z,0
2017-12-03T05:08:47.807Z,0
2017-12-03T05:09:28.364Z,0
2017-12-03T05:10:08.947Z,0
2017-12-03T05:10:49.515Z,0
2017-12-03T05:11:30.069Z,0
2017-12-03T05:12:10.641Z,0
2017-12-03T05:12:51.196Z,0
2017-12-03T05:13:31.761Z,0
2017-12-03T05:14:12.327Z,0
2017-12-03T05:14:52.898Z,0
2017-12-03T05:15:33.458Z,0
2017-12-03T05:16:14.018Z,0
2017-12-03T05:16:54.576Z,0
2017-12-03T05:17:35.164Z,0
2017-12-03T05:18:15.784Z,0
2017-12-03T05:18:56.359Z,0
2017-12-03T05:19:36.933Z,0
2017-12-03T05:20:17.498Z,0
2017-12-03T05:20:58.072Z,0
2017-12-03T05:21:38.657Z,0
2017-12-03T05:22:19.237Z,0
2017-12-03T05:22:59.816Z,0
2017-12-03T05:23:40.403Z,0
2017-12-03T05:24:21.001Z,0
2017-12-03T05:25:01.598Z,0
2017-12-03T05:25:42.196Z,0
2017-12-03T05:26:22.781Z,0
2017-12-03T05:27:03.347Z,4
2017-12-03T05:27:43.930Z,4
2017-12-03T05:28:24.500Z,4
2017-12-03T05:29:05.078Z,4
2017-12-03T05:29:45.677Z,4
2017-12-03T05:30:26.247Z,4
2017-12-03T05:31:06.822Z,4
2017-12-03T05:31:47.373Z,4
2017-12-03T05:32:27.936Z,4
2017-12-03T05:33:08.512Z,4
2017-12-03T05:33:49.066Z,4
2017-12-03T05:34:29.630Z,4
2017-12-03T05:35:10.214Z,4
2017-12-03T05:35:50.787Z,4
2017-12-03T05:36:31.345Z,4
2017-12-03T05:37:11.932Z,4
2017-12-03T05:37:52.517Z,4
2017-12-03T05:38:33.081Z,4
2017-12-03T05:39:13.639Z,4
2017-12-03T05:39:54.203Z,4
2017-12-03T05:40:34.764Z,4
2017-12-03T05:41:15.346Z,4
2017-12-03T05:41:55.905Z,4
2017-12-03T05:42:36.474Z,4
2017-12-03T05:43:17.075Z,4
2017-12-03T05:43:57.649Z,4
2017-12-03T05:44:38.205Z,4
2017-12-03T05:45:18.787Z,4
2017-12-03T05:45:59.354Z,4
2017-12-03T05:46:39.916Z,4
2017-12-03T05:47:20.501Z,4
2017-12-03T05:48:01.080Z,4
2017-12-03T05:48:41.656Z,4
2017-12-03T05:49:22.220Z,4
2017-12-03T05:50:02.789Z,4
2017-12-03T05:50:43.352Z,4
2017-12-03T05:51:23.932Z,4
2017-12-03T05:52:04.520Z,4
2017-12-03T05:52:45.115Z,4
2017-12-03T05:53:25.674Z,4
2017-12-03T05:54:06.255Z,4
2017-12-03T05:54:46.823Z,4
2017-12-03T05:55:27.380Z,4
2017-12-03T05:56:07.940Z,4
2017-12-03T05:56:48.511Z,4
2017-12-03T05:57:29.107Z,4
2017-12-03T05:58:09.670Z,4
2017-12-03T05:58:50.236Z,4
2017-12-03T05:59:30.827Z,4
2017-12-03T06:00:11.369Z,4
2017-12-03T06:00:51.937Z,4
2017-12-03T06:01:32.495Z,4
2017-12-03T06:02:13.053Z,4
2017-12-03T06:02:53.629Z,4
2017-12-03T06:03:34.229Z,4
2017-12-03T06:04:14.785Z,4
2017-12-03T06:04:55.390Z,4
2017-12-03T06:05:35.940Z,4
2017-12-03T06:06:16.494Z,4
2017-12-03T06:07:01.127Z,4
2017-12-03T06:07:50.274Z,4
2017-12-03T06:08:35.574Z,4
2017-12-03T06:09:18.450Z,4
2017-12-03T06:09:59.489Z,4
2017-12-03T06:10:40.040Z,4
2017-12-03T06:11:20.619Z,4
2017-12-03T06:12:01.176Z,4
2017-12-03T06:12:41.798Z,4
2017-12-03T06:13:22.378Z,4
2017-12-03T06:14:02.958Z,4
2017-12-03T06:14:43.615Z,4
2017-12-03T06:15:24.116Z,4
2017-12-03T06:16:04.678Z,4
2017-12-03T06:16:45.242Z,4
2017-12-03T06:17:25.824Z,4
2017-12-03T06:18:06.386Z,4
2017-12-03T06:18:47.009Z,4
2017-12-03T06:19:27.830Z,4
2017-12-03T06:20:09.194Z,4
2017-12-03T06:20:49.992Z,4
2017-12-03T06:21:31.032Z,4
2017-12-03T06:22:11.769Z,0
2017-12-03T06:22:52.342Z,0
2017-12-03T06:23:33.128Z,0
2017-12-03T06:24:14.227Z,0
2017-12-03T06:24:55.098Z,4
2017-12-03T06:25:35.942Z,4
2017-12-03T06:26:16.837Z,0
2017-12-03T06:26:57.633Z,0
2017-12-03T06:27:38.516Z,4
2017-12-03T06:28:19.152Z,4
2017-12-03T06:28:59.724Z,4
2017-12-03T06:29:40.292Z,4
2017-12-03T06:30:20.861Z,4
2017-12-03T06:31:02.104Z,4
2017-12-03T06:31:43.880Z,4
2017-12-03T06:32:24.764Z,4
2017-12-03T06:33:05.506Z,4
2017-12-03T06:33:46.110Z,4
2017-12-03T06:34:26.699Z,4
2017-12-03T06:35:07.731Z,4
2017-12-03T06:35:48.784Z,4
2017-12-03T06:36:29.771Z,8
2017-12-03T06:37:10.611Z,12
2017-12-03T06:37:51.585Z,8
2017-12-03T06:38:32.248Z,12
2017-12-03T06:39:12.831Z,20
2017-12-03T06:39:53.410Z,12
2017-12-03T06:40:33.970Z,8
2017-12-03T06:41:14.558Z,8
2017-12-03T06:41:55.411Z,12
2017-12-03T06:42:36.346Z,16
2017-12-03T06:43:17.360Z,16
2017-12-03T06:43:58.069Z,16
2017-12-03T06:44:38.880Z,16
2017-12-03T06:45:19.793Z,24
2017-12-03T06:46:00.503Z,28
2017-12-03T06:46:41.599Z,48
2017-12-03T06:47:22.202Z,48
2017-12-03T06:48:02.770Z,56
2017-12-03T06:48:43.587Z,36
2017-12-03T06:49:24.686Z,36
2017-12-03T06:50:05.311Z,36
2017-12-03T06:50:45.964Z,36
2017-12-03T06:51:26.971Z,40
2017-12-03T06:52:07.978Z,72
2017-12-03T06:52:49.289Z,52
2017-12-03T06:53:30.050Z,40
2017-12-03T06:54:11.214Z,36
2017-12-03T06:54:51.703Z,44
2017-12-03T06:55:32.268Z,44
2017-12-03T06:56:12.969Z,40
2017-12-03T06:56:53.900Z,40
2017-12-03T06:57:34.579Z,64
2017-12-03T06:58:15.705Z,100
2017-12-03T06:58:56.656Z,104
2017-12-03T06:59:37.318Z,88
2017-12-03T07:00:17.977Z,68
2017-12-03T07:00:58.747Z,60
2017-12-03T07:01:39.282Z,60
2017-12-03T07:02:20.413Z,68
2017-12-03T07:03:01.371Z,80
2017-12-03T07:03:42.492Z,100
2017-12-03T07:04:23.328Z,116
2017-12-03T07:05:04.187Z,136
2017-12-03T07:05:44.980Z,164
2017-12-03T07:06:25.968Z,204
2017-12-03T07:07:06.708Z,244
2017-12-03T07:07:47.278Z,280
2017-12-03T07:08:27.836Z,296
2017-12-03T07:09:08.491Z,280
2017-12-03T07:09:49.072Z,268
2017-12-03T07:10:29.637Z,296
2017-12-03T07:11:10.240Z,364
2017-12-03T07:11:50.789Z,408
2017-12-03T07:12:31.367Z,432
2017-12-03T07:13:11.934Z,440
2017-12-03T07:13:53.082Z,452
2017-12-03T07:14:33.753Z,484
2017-12-03T07:15:14.322Z,500
2017-12-03T07:15:54.891Z,516
2017-12-03T07:16:35.465Z,548
2017-12-03T07:17:16.340Z,568
2017-12-03T07:17:57.193Z,588
2017-12-03T07:18:37.801Z,620
2017-12-03T07:19:18.544Z,644
2017-12-03T07:19:59.326Z,660
2017-12-03T07:20:39.985Z,676
2017-12-03T07:21:20.564Z,700
2017-12-03T07:22:01.129Z,740
2017-12-03T07:22:42.771Z,760
2017-12-03T07:23:24.244Z,780
2017-12-03T07:24:04.804Z,804
2017-12-03T07:24:45.370Z,828
2017-12-03T07:25:25.934Z,844
2017-12-03T07:26:06.497Z,872
2017-12-03T07:26:47.088Z,900
2017-12-03T07:27:27.665Z,916
2017-12-03T07:28:08.242Z,932
2017-12-03T07:28:48.802Z,952
2017-12-03T07:29:29.390Z,1000
2017-12-03T07:30:09.962Z,1048
2017-12-03T07:30:50.550Z,1076
2017-12-03T07:31:31.127Z,1100
2017-12-03T07:32:11.669Z,1124
2017-12-03T07:32:52.252Z,1160
2017-12-03T07:33:32.835Z,1188
2017-12-03T07:34:13.407Z,1224
2017-12-03T07:34:53.976Z,1268
2017-12-03T07:35:34.547Z,1312
2017-12-03T07:36:15.112Z,1340
2017-12-03T07:36:55.672Z,1360
2017-12-03T07:37:36.243Z,1400
2017-12-03T07:38:16.813Z,1444
2017-12-03T07:38:57.376Z,1464
2017-12-03T07:39:37.950Z,1480
2017-12-03T07:40:18.520Z,1484
2017-12-03T07:40:59.075Z,1544
2017-12-03T07:41:39.645Z,1580
2017-12-03T07:42:20.218Z,1588
2017-12-03T07:43:00.784Z,1588
2017-12-03T07:43:41.343Z,1660
2017-12-03T07:44:21.921Z,1708
2017-12-03T07:45:02.481Z,1728
2017-12-03T07:45:43.068Z,1740
2017-12-03T07:46:23.640Z,1764
2017-12-03T07:47:04.194Z,1800
2017-12-03T07:47:44.760Z,1824
2017-12-03T07:48:25.353Z,1852
2017-12-03T07:49:05.932Z,1852
2017-12-03T07:49:46.499Z,1872
2017-12-03T07:50:27.097Z,1928
2017-12-03T07:51:07.698Z,1940
2017-12-03T07:51:48.284Z,1984
2017-12-03T07:52:28.869Z,1996
2017-12-03T07:53:09.518Z,1992
2017-12-03T07:53:50.087Z,1996
2017-12-03T07:54:30.744Z,2032
2017-12-03T07:55:11.270Z,2112
2017-12-03T07:55:51.870Z,2148
2017-12-03T07:56:33.130Z,2156
2017-12-03T07:57:15.268Z,2160
2017-12-03T07:57:55.951Z,2236
2017-12-03T07:58:36.516Z,2216
2017-12-03T07:59:17.286Z,2232
2017-12-03T07:59:57.961Z,2164
2017-12-03T08:00:38.545Z,2208
2017-12-03T08:01:19.388Z,2364
2017-12-03T08:02:00.034Z,2428
2017-12-03T08:02:40.731Z,2408
2017-12-03T08:03:21.442Z,2396
2017-12-03T08:04:02.190Z,2380
2017-12-03T08:04:42.844Z,2496
2017-12-03T08:05:23.497Z,2516
2017-12-03T08:06:04.535Z,2516
2017-12-03T08:06:45.398Z,2536
2017-12-03T08:07:26.001Z,2540
2017-12-03T08:08:06.571Z,2536
2017-12-03T08:08:47.138Z,2472
2017-12-03T08:09:27.705Z,2576
2017-12-03T08:10:08.274Z,2596
2017-12-03T08:10:48.844Z,2620
2017-12-03T08:11:29.410Z,2640
2017-12-03T08:12:09.966Z,2616
2017-12-03T08:12:50.541Z,2636
2017-12-03T08:13:31.147Z,2796
2017-12-03T08:14:11.718Z,2804
2017-12-03T08:14:52.289Z,2728
2017-12-03T08:15:32.932Z,2680
2017-12-03T08:16:13.472Z,2728
2017-12-03T08:16:54.052Z,2752
2017-12-03T08:17:34.612Z,2748
2017-12-03T08:18:16.127Z,2700
2017-12-03T08:18:56.705Z,2716
2017-12-03T08:19:37.278Z,2712
2017-12-03T08:20:17.862Z,2776
2017-12-03T08:20:58.421Z,2808
2017-12-03T08:21:39.031Z,2776
2017-12-03T08:22:19.601Z,2796
2017-12-03T08:23:00.268Z,2784
2017-12-03T08:23:40.838Z,2764
2017-12-03T08:24:21.440Z,2776
2017-12-03T08:25:02.003Z,2848
2017-12-03T08:25:42.560Z,2856
2017-12-03T08:26:23.145Z,2884
2017-12-03T08:27:03.698Z,2912
2017-12-03T08:27:44.250Z,2872
2017-12-03T08:28:24.819Z,2836
2017-12-03T08:29:05.369Z,2924
2017-12-03T08:29:45.933Z,2952
2017-12-03T08:30:26.556Z,2972
2017-12-03T08:31:07.113Z,2912
2017-12-03T08:31:47.674Z,2932
2017-12-03T08:32:28.696Z,2912
2017-12-03T08:33:09.264Z,2932
2017-12-03T08:33:49.845Z,2996
2017-12-03T08:34:30.401Z,4016
2017-12-03T08:35:11.002Z,6180
2017-12-03T08:35:51.574Z,8320
2017-12-03T08:36:32.145Z,9568
2017-12-03T08:37:12.712Z,9452
2017-12-03T08:37:53.297Z,9248
2017-12-03T08:38:33.864Z,10252
2017-12-03T08:39:14.473Z,13248
2017-12-03T08:39:55.070Z,15840
2017-12-03T08:40:35.628Z,15456
2017-12-03T08:41:16.208Z,12640
2017-12-03T08:41:56.792Z,9700
2017-12-03T08:42:37.381Z,9356
2017-12-03T08:43:17.966Z,11184
2017-12-03T08:43:58.561Z,13024
2017-12-03T08:44:39.173Z,15456
2017-12-03T08:45:19.733Z,18208
2017-12-03T08:46:00.334Z,19168
2017-12-03T08:46:40.931Z,19296
2017-12-03T08:47:21.502Z,16736
2017-12-03T08:48:02.121Z,16896
2017-12-03T08:48:42.724Z,16096
2017-12-03T08:49:23.289Z,14688
2017-12-03T08:50:03.869Z,12640
2017-12-03T08:50:44.494Z,11168
2017-12-03T08:51:25.069Z,11232
2017-12-03T08:52:05.633Z,12384
2017-12-03T08:52:46.245Z,14848
2017-12-03T08:53:26.859Z,15904
2017-12-03T08:54:07.421Z,13472
2017-12-03T08:54:47.990Z,9304
2017-12-03T08:55:28.553Z,8496
2017-12-03T08:56:09.129Z,12076
2017-12-03T08:56:49.693Z,17760
2017-12-03T08:57:30.267Z,19840
2017-12-03T08:58:10.845Z,20928
2017-12-03T08:58:51.418Z,21184
2017-12-03T08:59:32.003Z,21888
2017-12-03T09:00:12.571Z,22432
2017-12-03T09:00:53.148Z,23072
2017-12-03T09:01:33.737Z,23232
2017-12-03T09:02:14.328Z,21440
2017-12-03T09:02:54.907Z,20064
2017-12-03T09:03:35.464Z,17856
2017-12-03T09:04:16.060Z,18400
2017-12-03T09:04:56.630Z,19552
2017-12-03T09:05:37.180Z,22656
2017-12-03T09:06:17.768Z,23872
2017-12-03T09:06:58.344Z,20768
2017-12-03T09:07:38.918Z,21024
2017-12-03T09:08:19.520Z,15936
2017-12-03T09:09:00.081Z,17632
2017-12-03T09:09:40.655Z,16928
2017-12-03T09:10:21.218Z,17088
2017-12-03T09:11:01.836Z,17280
2017-12-03T09:11:42.416Z,16960
2017-12-03T09:12:23.009Z,15520
2017-12-03T09:13:03.594Z,14176
2017-12-03T09:13:44.162Z,11648
2017-12-03T09:14:24.729Z,10120
2017-12-03T09:15:05.305Z,9732
2017-12-03T09:15:45.874Z,9824
2017-12-03T09:16:26.454Z,10488
2017-12-03T09:17:07.019Z,12308
2017-12-03T09:17:47.610Z,14336
2017-12-03T09:18:28.171Z,14432
2017-12-03T09:19:08.741Z,13920
2017-12-03T09:19:49.320Z,14080
2017-12-03T09:20:29.895Z,15136
2017-12-03T09:21:10.498Z,16448
2017-12-03T09:21:51.075Z,16416
2017-12-03T09:22:31.638Z,15200
2017-12-03T09:23:12.244Z,13856
2017-12-03T09:23:52.814Z,13888
2017-12-03T09:24:33.388Z,15392
2017-12-03T09:25:13.958Z,18496
2017-12-03T09:25:54.558Z,20032
2017-12-03T09:26:35.125Z,20736
2017-12-03T09:27:15.698Z,20736
2017-12-03T09:27:56.266Z,19200
2017-12-03T09:28:36.885Z,18432
2017-12-03T09:29:17.450Z,18272
2017-12-03T09:29:58.045Z,16928
2017-12-03T09:30:38.609Z,15872
2017-12-03T09:31:19.171Z,15424
2017-12-03T09:31:59.754Z,14560
2017-12-03T09:32:40.350Z,14592
2017-12-03T09:33:20.943Z,15904
2017-12-03T09:34:01.529Z,16576
2017-12-03T09:34:42.095Z,15936
2017-12-03T09:35:22.719Z,15360
2017-12-03T09:36:03.300Z,15552
2017-12-03T09:36:43.877Z,15328
2017-12-03T09:37:24.448Z,14816
2017-12-03T09:38:05.126Z,13216
2017-12-03T09:38:45.716Z,13632
2017-12-03T09:39:26.277Z,14208
2017-12-03T09:40:06.876Z,13856
2017-12-03T09:40:47.471Z,11716
2017-12-03T09:41:28.104Z,12088